Champion — WCZ7631 — position and weather

sailwx.info

Track history (hours):
 
Tides and Currents Weather Stations Pressure Air Temp Water Temp Dewpoint Dewpoint Depression Visibility Wind Speed Wind Dir Waves Ship Positions

Champion

Owner: MC CULLEY MARINE SERVICES INC, FORT PIERCE, FL. More information available from US FCC via Universal Licensing System and Coast Guard Vessel Documentation Center.

Last reported at 2017-Aug-20 01:17 UTC. Time now 2017-Oct-20 14:46 UTC.
Position N 27°03' W 080°07'.
Warning: this ship's position is months out of date.

Length 20 m; draft 1.7 m.

Type: Towing. MMSI: 367005250.

Date/timePositionNaut miles runAvg speedWind from/ knotsBaromVisibWave heightAir tempDewpointWater temp
2017-Aug-20 01:17N 27°03' W 080°07'1 5.3
2017-Aug-20 01:00N 27°02' W 080°06'3 5.5
2017-Aug-20 00:31N 26°60' W 080°05'3 5.5
2017-Aug-20 00:00N 26°57' W 080°05'0 0.9
2017-Aug-19 23:31N 26°57' W 080°05'0 0.4
2017-Aug-19 23:01N 26°57' W 080°05'2 3.6
2017-Aug-19 22:31N 26°55' W 080°05'3 5.3
2017-Aug-19 22:01N 26°52' W 080°04'21 3.6
2017-Aug-19 16:12N 26°31' W 080°01'211.1
2017-Aug-19 16:00N 26°29' W 080°01'510.8
2017-Aug-19 15:30N 26°24' W 080°02'5 9.3
2017-Aug-19 15:00N 26°19' W 080°04'5 5.4
2017-Aug-19 14:00N 26°14' W 080°04'0 0.0
2017-Aug-19 13:31N 26°14' W 080°04'0 0.6
2017-Aug-19 13:01N 26°14' W 080°04'0 0.3
2017-Aug-19 12:30N 26°14' W 080°04'0 0.4
2017-Aug-19 12:00N 26°14' W 080°04'0 0.7
2017-Aug-19 11:30N 26°14' W 080°04'2 3.4
2017-Aug-19 11:00N 26°16' W 080°05'0 0.0
2017-Aug-19 10:30N 26°16' W 080°05'0 0.0
2017-Aug-19 10:00N 26°16' W 080°05'0 0.0
2017-Aug-19 09:31N 26°16' W 080°05'0 0.0
2017-Aug-19 09:01N 26°16' W 080°05'0 0.0
2017-Aug-19 08:31N 26°16' W 080°05'0 0.0
2017-Aug-19 08:01N 26°16' W 080°05'0 0.0
2017-Aug-19 07:31N 26°16' W 080°05'0 0.0
2017-Aug-19 07:00N 26°16' W 080°05'0 0.0
2017-Aug-19 06:30N 26°16' W 080°05'0 0.0
2017-Aug-19 06:00N 26°16' W 080°05'0 0.0
2017-Aug-19 05:30N 26°16' W 080°05'0 0.0
2017-Aug-19 05:00N 26°16' W 080°05'0 0.0
2017-Aug-19 04:30N 26°16' W 080°05'0 0.0
2017-Aug-19 04:00N 26°16' W 080°05'0 0.0
2017-Aug-19 03:30N 26°16' W 080°05'0 0.0
2017-Aug-19 03:00N 26°16' W 080°05'0 0.0
2017-Aug-19 02:30N 26°16' W 080°05'0 0.0
2017-Aug-19 02:00N 26°16' W 080°05'0 0.0
2017-Aug-19 01:30N 26°16' W 080°05'0 0.0
2017-Aug-19 01:00N 26°16' W 080°05'0 0.0
2017-Aug-19 00:29N 26°16' W 080°05'0 0.0
2017-Aug-19 00:01N 26°16' W 080°05'0 0.0
2017-Aug-18 23:31N 26°16' W 080°05'0 0.0
2017-Aug-18 23:00N 26°16' W 080°05'0 0.0
2017-Aug-18 22:31N 26°16' W 080°05'0 0.0
2017-Aug-18 22:00N 26°16' W 080°05'0 0.0
2017-Aug-18 21:31N 26°16' W 080°05'0 0.0
2017-Aug-18 21:00N 26°16' W 080°05'0 0.0
2017-Aug-18 20:31N 26°16' W 080°05'0 0.0
2017-Aug-18 20:01N 26°16' W 080°05'0 0.0
2017-Aug-18 19:30N 26°16' W 080°05'0 0.0
2017-Aug-18 19:01N 26°16' W 080°05'0 0.0
2017-Aug-18 18:31N 26°16' W 080°05'0 0.0
2017-Aug-18 18:01N 26°16' W 080°05'0 0.0
2017-Aug-18 17:31N 26°16' W 080°05'0 0.0
2017-Aug-18 17:00N 26°16' W 080°05'0 0.0
2017-Aug-18 16:30N 26°16' W 080°05'0 0.0
2017-Aug-18 16:00N 26°16' W 080°05'0 0.0
2017-Aug-18 15:30N 26°16' W 080°05'0 0.0
2017-Aug-18 15:00N 26°16' W 080°05'0 0.0
2017-Aug-18 14:00N 26°16' W 080°05'0 0.0
2017-Aug-18 13:30N 26°16' W 080°05'0 0.0
2017-Aug-18 13:00N 26°16' W 080°05'0 0.0
2017-Aug-18 12:30N 26°16' W 080°05'0 0.0
2017-Aug-18 12:00N 26°16' W 080°05'0 0.0
2017-Aug-18 11:30N 26°16' W 080°05'0 0.0
2017-Aug-18 11:00N 26°16' W 080°05'1 2.3
2017-Aug-18 10:30N 26°15' W 080°04'0 0.5
2017-Aug-18 10:01N 26°15' W 080°04'1 1.4
2017-Aug-18 09:30N 26°14' W 080°04'1 2.1
2017-Aug-18 09:01N 26°13' W 080°04'1 2.2
2017-Aug-18 08:31N 26°12' W 080°05'1 2.3
2017-Aug-18 08:01N 26°11' W 080°05'1 2.8
2017-Aug-18 07:31N 26°09' W 080°05'2 3.2
2017-Aug-18 07:01N 26°08' W 080°05'2 3.3
2017-Aug-18 06:31N 26°06' W 080°05'2 3.1
2017-Aug-18 06:01N 26°04' W 080°05'1 2.9
2017-Aug-18 05:31N 26°03' W 080°05'2 3.0
2017-Aug-18 05:01N 26°01' W 080°05'2 3.0
2017-Aug-18 04:31N 25°60' W 080°05'2 3.0
2017-Aug-18 04:01N 25°58' W 080°05'2 3.3
2017-Aug-18 03:31N 25°57' W 080°05'2 3.5
2017-Aug-18 03:01N 25°55' W 080°06'2 3.7
2017-Aug-18 02:31N 25°53' W 080°06'2 3.4
2017-Aug-18 02:00N 25°51' W 080°06'2 3.2
2017-Aug-18 01:30N 25°50' W 080°06'2 3.2
2017-Aug-18 01:01N 25°48' W 080°06'2 3.2
2017-Aug-18 00:30N 25°47' W 080°07'2 3.3
2017-Aug-18 00:00N 25°46' W 080°08'2 4.6
2017-Aug-17 23:30N 25°46' W 080°11'0 0.3
2017-Aug-17 23:00N 25°46' W 080°11'0 0.5
2017-Aug-17 22:30N 25°46' W 080°10'0 0.4
2017-Aug-17 22:00N 25°46' W 080°11'0 0.1
2017-Aug-17 21:31N 25°46' W 080°11'0 0.0
2017-Aug-17 21:00N 25°46' W 080°11'0 0.0
2017-Aug-17 20:31N 25°46' W 080°11'1 3.0
2017-Aug-17 20:01N 25°46' W 080°09'2 4.2
2017-Aug-17 19:31N 25°46' W 080°07'2 3.5
2017-Aug-17 19:01N 25°47' W 080°06'2 3.4
2017-Aug-17 18:31N 25°49' W 080°06'3 5.2
2017-Aug-17 18:01N 25°52' W 080°06'3 6.3
2017-Aug-17 17:31N 25°55' W 080°06'3 5.8
2017-Aug-17 17:01N 25°58' W 080°05'1 2.0
2017-Aug-17 16:31N 25°59' W 080°05'1 1.7
2017-Aug-17 16:01N 25°60' W 080°05'1 1.0
2017-Aug-17 15:30N 25°59' W 080°05'0 0.8
2017-Aug-17 15:01N 25°59' W 080°05'0 0.8
2017-Aug-17 14:30N 25°60' W 080°05'0 0.5
2017-Aug-17 14:01N 25°60' W 080°05'0 0.8
2017-Aug-17 13:31N 26°00' W 080°05'1 2.2
2017-Aug-17 13:00N 26°01' W 080°05'1 2.6
2017-Aug-17 12:30N 26°03' W 080°05'0 0.7
2017-Aug-17 12:00N 26°02' W 080°05'0 0.2
2017-Aug-17 11:30N 26°02' W 080°05'1 1.5
2017-Aug-17 11:00N 26°03' W 080°05'3 6.5
2017-Aug-17 10:30N 26°06' W 080°05'4 8.8
2017-Aug-17 10:00N 26°11' W 080°05'4 8.8
2017-Aug-17 09:30N 26°15' W 080°04'4 7.6
2017-Aug-17 09:00N 26°19' W 080°04'3 7.0
2017-Aug-17 08:30N 26°22' W 080°03'4 7.9
2017-Aug-17 08:00N 26°26' W 080°02'23 7.4
2017-Aug-17 04:58N 26°49' W 080°01'3 6.7
2017-Aug-17 04:31N 26°52' W 080°02'4 7.4
2017-Aug-17 04:01N 26°55' W 080°02'4 7.8
2017-Aug-17 03:31N 26°59' W 080°03'  
Track history (hours):
 
Tides and Currents Weather Stations Pressure Air Temp Water Temp Dewpoint Dewpoint Depression Visibility Wind Speed Wind Dir Waves Ship Positions

Champion

Owner: MC CULLEY MARINE SERVICES INC, FORT PIERCE, FL. More information available from US FCC via Universal Licensing System and Coast Guard Vessel Documentation Center.

Last reported at 2017-Aug-20 01:17 UTC. Time now 2017-Oct-20 14:46 UTC.
Position N 27°03' W 080°07'.
Warning: this ship's position is months out of date.

Length 20 m; draft 1.7 m.

Type: Towing. MMSI: 367005250.

Date/timePositionNaut miles runAvg speedWind from/ knotsBaromVisibWave heightAir tempDewpointWater temp
2017-Aug-20 01:17N 27°03' W 080°07'1 5.3
2017-Aug-20 01:00N 27°02' W 080°06'3 5.5
2017-Aug-20 00:31N 26°60' W 080°05'3 5.5
2017-Aug-20 00:00N 26°57' W 080°05'0 0.9
2017-Aug-19 23:31N 26°57' W 080°05'0 0.4
2017-Aug-19 23:01N 26°57' W 080°05'2 3.6
2017-Aug-19 22:31N 26°55' W 080°05'3 5.3
2017-Aug-19 22:01N 26°52' W 080°04'21 3.6
2017-Aug-19 16:12N 26°31' W 080°01'211.1
2017-Aug-19 16:00N 26°29' W 080°01'510.8
2017-Aug-19 15:30N 26°24' W 080°02'5 9.3
2017-Aug-19 15:00N 26°19' W 080°04'5 5.4
2017-Aug-19 14:00N 26°14' W 080°04'0 0.0
2017-Aug-19 13:31N 26°14' W 080°04'0 0.6
2017-Aug-19 13:01N 26°14' W 080°04'0 0.3
2017-Aug-19 12:30N 26°14' W 080°04'0 0.4
2017-Aug-19 12:00N 26°14' W 080°04'0 0.7
2017-Aug-19 11:30N 26°14' W 080°04'2 3.4
2017-Aug-19 11:00N 26°16' W 080°05'0 0.0
2017-Aug-19 10:30N 26°16' W 080°05'0 0.0
2017-Aug-19 10:00N 26°16' W 080°05'0 0.0
2017-Aug-19 09:31N 26°16' W 080°05'0 0.0
2017-Aug-19 09:01N 26°16' W 080°05'0 0.0
2017-Aug-19 08:31N 26°16' W 080°05'0 0.0
2017-Aug-19 08:01N 26°16' W 080°05'0 0.0
2017-Aug-19 07:31N 26°16' W 080°05'0 0.0
2017-Aug-19 07:00N 26°16' W 080°05'0 0.0
2017-Aug-19 06:30N 26°16' W 080°05'0 0.0
2017-Aug-19 06:00N 26°16' W 080°05'0 0.0
2017-Aug-19 05:30N 26°16' W 080°05'0 0.0
2017-Aug-19 05:00N 26°16' W 080°05'0 0.0
2017-Aug-19 04:30N 26°16' W 080°05'0 0.0
2017-Aug-19 04:00N 26°16' W 080°05'0 0.0
2017-Aug-19 03:30N 26°16' W 080°05'0 0.0
2017-Aug-19 03:00N 26°16' W 080°05'0 0.0
2017-Aug-19 02:30N 26°16' W 080°05'0 0.0
2017-Aug-19 02:00N 26°16' W 080°05'0 0.0
2017-Aug-19 01:30N 26°16' W 080°05'0 0.0
2017-Aug-19 01:00N 26°16' W 080°05'0 0.0
2017-Aug-19 00:29N 26°16' W 080°05'0 0.0
2017-Aug-19 00:01N 26°16' W 080°05'0 0.0
2017-Aug-18 23:31N 26°16' W 080°05'0 0.0
2017-Aug-18 23:00N 26°16' W 080°05'0 0.0
2017-Aug-18 22:31N 26°16' W 080°05'0 0.0
2017-Aug-18 22:00N 26°16' W 080°05'0 0.0
2017-Aug-18 21:31N 26°16' W 080°05'0 0.0
2017-Aug-18 21:00N 26°16' W 080°05'0 0.0
2017-Aug-18 20:31N 26°16' W 080°05'0 0.0
2017-Aug-18 20:01N 26°16' W 080°05'0 0.0
2017-Aug-18 19:30N 26°16' W 080°05'0 0.0
2017-Aug-18 19:01N 26°16' W 080°05'0 0.0
2017-Aug-18 18:31N 26°16' W 080°05'0 0.0
2017-Aug-18 18:01N 26°16' W 080°05'0 0.0
2017-Aug-18 17:31N 26°16' W 080°05'0 0.0
2017-Aug-18 17:00N 26°16' W 080°05'0 0.0
2017-Aug-18 16:30N 26°16' W 080°05'0 0.0
2017-Aug-18 16:00N 26°16' W 080°05'0 0.0
2017-Aug-18 15:30N 26°16' W 080°05'0 0.0
2017-Aug-18 15:00N 26°16' W 080°05'0 0.0
2017-Aug-18 14:00N 26°16' W 080°05'0 0.0
2017-Aug-18 13:30N 26°16' W 080°05'0 0.0
2017-Aug-18 13:00N 26°16' W 080°05'0 0.0
2017-Aug-18 12:30N 26°16' W 080°05'0 0.0
2017-Aug-18 12:00N 26°16' W 080°05'0 0.0
2017-Aug-18 11:30N 26°16' W 080°05'0 0.0
2017-Aug-18 11:00N 26°16' W 080°05'1 2.3
2017-Aug-18 10:30N 26°15' W 080°04'0 0.5
2017-Aug-18 10:01N 26°15' W 080°04'1 1.4
2017-Aug-18 09:30N 26°14' W 080°04'1 2.1
2017-Aug-18 09:01N 26°13' W 080°04'1 2.2
2017-Aug-18 08:31N 26°12' W 080°05'1 2.3
2017-Aug-18 08:01N 26°11' W 080°05'1 2.8
2017-Aug-18 07:31N 26°09' W 080°05'2 3.2
2017-Aug-18 07:01N 26°08' W 080°05'2 3.3
2017-Aug-18 06:31N 26°06' W 080°05'2 3.1
2017-Aug-18 06:01N 26°04' W 080°05'1 2.9
2017-Aug-18 05:31N 26°03' W 080°05'2 3.0
2017-Aug-18 05:01N 26°01' W 080°05'2 3.0
2017-Aug-18 04:31N 25°60' W 080°05'2 3.0
2017-Aug-18 04:01N 25°58' W 080°05'2 3.3
2017-Aug-18 03:31N 25°57' W 080°05'2 3.5
2017-Aug-18 03:01N 25°55' W 080°06'2 3.7
2017-Aug-18 02:31N 25°53' W 080°06'2 3.4
2017-Aug-18 02:00N 25°51' W 080°06'2 3.2
2017-Aug-18 01:30N 25°50' W 080°06'2 3.2
2017-Aug-18 01:01N 25°48' W 080°06'2 3.2
2017-Aug-18 00:30N 25°47' W 080°07'2 3.3
2017-Aug-18 00:00N 25°46' W 080°08'2 4.6
2017-Aug-17 23:30N 25°46' W 080°11'0 0.3
2017-Aug-17 23:00N 25°46' W 080°11'0 0.5
2017-Aug-17 22:30N 25°46' W 080°10'0 0.4
2017-Aug-17 22:00N 25°46' W 080°11'0 0.1
2017-Aug-17 21:31N 25°46' W 080°11'0 0.0
2017-Aug-17 21:00N 25°46' W 080°11'0 0.0
2017-Aug-17 20:31N 25°46' W 080°11'1 3.0
2017-Aug-17 20:01N 25°46' W 080°09'2 4.2
2017-Aug-17 19:31N 25°46' W 080°07'2 3.5
2017-Aug-17 19:01N 25°47' W 080°06'2 3.4
2017-Aug-17 18:31N 25°49' W 080°06'3 5.2
2017-Aug-17 18:01N 25°52' W 080°06'3 6.3
2017-Aug-17 17:31N 25°55' W 080°06'3 5.8
2017-Aug-17 17:01N 25°58' W 080°05'1 2.0
2017-Aug-17 16:31N 25°59' W 080°05'1 1.7
2017-Aug-17 16:01N 25°60' W 080°05'1 1.0
2017-Aug-17 15:30N 25°59' W 080°05'0 0.8
2017-Aug-17 15:01N 25°59' W 080°05'0 0.8
2017-Aug-17 14:30N 25°60' W 080°05'0 0.5
2017-Aug-17 14:01N 25°60' W 080°05'0 0.8
2017-Aug-17 13:31N 26°00' W 080°05'1 2.2
2017-Aug-17 13:00N 26°01' W 080°05'1 2.6
2017-Aug-17 12:30N 26°03' W 080°05'0 0.7
2017-Aug-17 12:00N 26°02' W 080°05'0 0.2
2017-Aug-17 11:30N 26°02' W 080°05'1 1.5
2017-Aug-17 11:00N 26°03' W 080°05'3 6.5
2017-Aug-17 10:30N 26°06' W 080°05'4 8.8
2017-Aug-17 10:00N 26°11' W 080°05'4 8.8
2017-Aug-17 09:30N 26°15' W 080°04'4 7.6
2017-Aug-17 09:00N 26°19' W 080°04'3 7.0
2017-Aug-17 08:30N 26°22' W 080°03'4 7.9
2017-Aug-17 08:00N 26°26' W 080°02'23 7.4
2017-Aug-17 04:58N 26°49' W 080°01'3 6.7
2017-Aug-17 04:31N 26°52' W 080°02'4 7.4
2017-Aug-17 04:01N 26°55' W 080°02'4 7.8
2017-Aug-17 03:31N 26°59' W 080°03'  

Dump ship's entire track history